Airfield :
LOGIN :

Register | Disclaimer

   EN    FR    IT 

 










Legend :    VFR   Marginal VFR   IFR   Intensive IFR   Very Intensive IFR
Visi :
Ceiling :
>= 8 km
>= 3000ft
5 to 8 km
1000 to 3000 ft
1500m to 5 km
500 to 1000 ft
800 to 1500m
200 to 500 ft
< 800m
< 200 ft
Symbols :   Thunderstorms  Fog  Heavy snow  Heavy precipitations  Wind > 20 kt
SIGMETs :     Misc.  Thunderstorms  Icing  Turbulence  Mountain Waves  Volcanic Ashes






- Airport Elevation : 357 ft
- IATA code : TUF


LFOT - Tours

CURRENT METAR :
  • 161230Z AUTO 31007KT 280V010 9999 BKN030 OVC035 20/13 Q1022 NOSIG

EXPIRED METARs :
  • 161200Z AUTO 30008KT 260V340 9999 SCT026 BKN031 OVC039 19/13 Q1021 NOSIG
  • 161130Z AUTO 27005KT 240V300 9999 FEW024 OVC038 19/13 Q1021 NOSIG
  • 161100Z AUTO 31006KT 280V340 9999 BKN028 OVC036 18/13 Q1022 NOSIG
  • 161030Z AUTO 32006KT 270V010 9999 SCT023 OVC031 18/13 Q1022 NOSIG
  • 161000Z AUTO 29007KT 250V350 9999 BKN023 BKN029 OVC037 18/12 Q1022 NOSIG

TAF TAF LFOT
Valid from the 16 at 12:00 until the 17 at 12:00 UTC


161100Z 1612/1712 33006KT 9999 BKN030



MET'MAP, your aeronautical weather chart ! - Copyright ORBIFLY December 2007 - Disclaimer

ORBIFLY MET'MAP TEAM :

Programming & Development : Alexandra Zaïnal
Concept & original design : Baudouin d'Aumeries
Assistance for programming : Marc-Olivier Méhu
Technical & hardware support : Manuel Goepfert

Contact : metmap@orbifly.com




SOURCES & CREDITS :

   NOAA